Tilton, South Dakota
Current Conditions -  °F | °C
As of 3:15 PM on Thursday 18 Dec 2014 (Local Time) from KSPF Reporting Station
Clear Clear  
Wind Chill: 33°   Ceiling: Unl
Heat Index: 39°   Visibility: 10mi
Dew Point: 23°   Wind: 9mph
Humidity: 52%   Direction: 260°W
Pressure: 29.97"   Gusts: NA
Location:  44.253°N, 103.912°W
Report Text: KSPF 182215Z AUTO 26008KT 10SM CLR 04/M05 A2997 RMK AO2
Loading
Personal Weather Stations






























Interactive Weather Map New forecast layout! Learn more

10-Day Weather Forecast

Advertisements
Track Severe Weather on mobile